Time;durP1;ratioP1;P1;durP2;ratioP2;P2;SDS_P1;SDS_P2;PMS_P1;PMS_P2;Temp;Humidity;BMP_temperature;BMP_pressure;BME280_temperature;BME280_humidity;BME280_pressure;Samples;Min_cycle;Max_cycle;Signal;HPM_P1;HPM_P2
2023/06/09 00:01:39;;;;;;;10.90;3.63;;;;;;;17.30;62.20;101351.38;4952571;28;20030;-84
2023/06/09 00:04:06;;;;;;;8.38;3.88;;;;;;;17.31;62.51;101344.88;4931614;29;20036;-83
2023/06/09 00:06:33;;;;;;;13.10;4.10;;;;;;;17.25;62.79;101350.91;4956876;28;20130;-84
2023/06/09 00:08:58;;;;;;;7.68;3.88;;;;;;;17.22;62.45;101342.97;4965484;28;20093;-84
2023/06/09 00:11:25;;;;;;;9.43;4.10;;;;;;;17.21;62.44;101342.09;4950816;28;20039;-83
2023/06/09 00:13:51;;;;;;;8.30;3.88;;;;;;;17.22;62.33;101346.59;4946249;29;20123;-84
2023/06/09 00:16:16;;;;;;;8.32;4.10;;;;;;;17.16;62.54;101347.16;4933042;29;20095;-84
2023/06/09 00:18:43;;;;;;;7.18;3.53;;;;;;;17.03;63.06;101341.91;4951138;28;20130;-84
2023/06/09 00:21:09;;;;;;;8.13;3.60;;;;;;;17.02;63.78;101344.78;4952332;28;20020;-83
2023/06/09 00:23:35;;;;;;;11.23;4.10;;;;;;;17.01;64.07;101338.41;4966865;28;20094;-84
2023/06/09 00:26:00;;;;;;;8.57;4.00;;;;;;;16.98;63.35;101335.13;4950195;29;20074;-84
2023/06/09 00:28:26;;;;;;;11.10;3.97;;;;;;;17.00;62.67;101331.19;4949593;29;20043;-84
2023/06/09 00:30:51;;;;;;;8.65;3.72;;;;;;;16.92;63.67;101330.16;4952032;29;20479;-83
2023/06/09 00:33:17;;;;;;;7.13;3.70;;;;;;;16.94;62.91;101339.16;4951016;28;20045;-84
2023/06/09 00:35:43;;;;;;;8.85;3.88;;;;;;;16.86;63.61;101331.59;4966578;28;20043;-84
2023/06/09 00:38:08;;;;;;;9.27;3.63;;;;;;;16.85;62.77;101338.09;4951529;28;20414;-84
2023/06/09 00:40:34;;;;;;;9.45;3.83;;;;;;;16.80;64.19;101337.66;4950693;29;20043;-84
2023/06/09 00:42:59;;;;;;;10.10;4.22;;;;;;;16.79;63.89;101342.28;4947940;28;20188;-84
2023/06/09 00:45:25;;;;;;;12.65;3.22;;;;;;;16.68;63.83;101331.34;4950489;29;20512;-84
2023/06/09 00:47:51;;;;;;;10.55;3.42;;;;;;;16.65;63.42;101319.78;4950282;29;20035;-84
2023/06/09 00:50:19;;;;;;;8.68;3.95;;;;;;;16.75;63.57;101343.56;4951260;28;20058;-84
2023/06/09 00:52:46;;;;;;;8.82;4.28;;;;;;;16.71;63.54;101331.06;4950173;29;20031;-83
2023/06/09 00:55:12;;;;;;;7.55;4.00;;;;;;;16.73;63.84;101329.09;4949172;29;20078;-84
2023/06/09 00:57:39;;;;;;;6.57;3.15;;;;;;;16.65;63.81;101331.66;4948611;29;20403;-84
2023/06/09 01:00:06;;;;;;;7.55;3.88;;;;;;;16.61;64.01;101332.06;4950950;29;20046;-84
2023/06/09 01:02:34;;;;;;;11.70;4.18;;;;;;;16.59;63.93;101334.94;4952003;28;20402;-84
2023/06/09 01:05:00;;;;;;;9.95;3.38;;;;;;;16.53;64.01;101325.38;4965685;28;20271;-84
2023/06/09 01:07:40;;;;;;;11.10;4.38;;;;;;;16.50;64.04;101333.00;4949392;29;20217;-84
2023/06/09 01:10:23;;;;;;;7.07;3.53;;;;;;;16.47;63.81;101322.31;4966029;28;20098;-84
2023/06/09 01:13:09;;;;;;;7.82;3.80;;;;;;;16.44;63.59;101323.44;4948045;29;20039;-84
2023/06/09 01:15:42;;;;;;;8.27;3.50;;;;;;;16.40;64.50;101321.97;4969189;28;20121;-84
2023/06/09 01:18:12;;;;;;;7.32;3.63;;;;;;;16.33;65.20;101318.91;4985450;28;20137;-84
2023/06/09 01:20:56;;;;;;;9.13;4.05;;;;;;;16.32;65.41;101330.91;4930745;29;20065;-84
2023/06/09 01:23:51;;;;;;;10.15;4.35;;;;;;;16.26;65.35;101320.47;4930645;29;20460;-84
2023/06/09 01:26:17;;;;;;;8.90;4.35;;;;;;;16.22;65.52;101318.13;4935569;29;20059;-84
2023/06/09 01:28:44;;;;;;;14.55;3.97;;;;;;;16.17;65.16;101314.91;4950038;28;20494;-84
2023/06/09 01:31:11;;;;;;;8.35;3.63;;;;;;;16.13;65.24;101313.44;4950873;28;20118;-84
2023/06/09 01:33:37;;;;;;;11.82;3.70;;;;;;;16.12;65.10;101325.44;4964665;28;20097;-84
2023/06/09 01:36:04;;;;;;;9.38;4.00;;;;;;;16.00;65.22;101311.81;4966121;28;20031;-84
2023/06/09 01:38:29;;;;;;;7.45;3.88;;;;;;;15.97;65.38;101312.06;4950934;28;20043;-84
2023/06/09 01:40:55;;;;;;;8.85;3.70;;;;;;;15.98;65.59;101315.66;4950156;28;20027;-84
2023/06/09 01:43:20;;;;;;;7.32;3.63;;;;;;;15.94;65.47;101315.06;4948669;28;20090;-84
2023/06/09 01:45:46;;;;;;;8.77;3.83;;;;;;;15.87;65.73;101302.91;4949397;29;20085;-84
2023/06/09 01:48:21;;;;;;;8.90;4.03;;;;;;;15.89;65.86;101314.59;4950818;28;20407;-84
2023/06/09 01:50:54;;;;;;;10.55;4.22;;;;;;;15.82;66.03;101308.78;4930418;29;20086;-84
2023/06/09 01:53:28;;;;;;;11.68;3.80;;;;;;;15.82;66.44;101314.28;4931458;29;20119;-84
2023/06/09 01:56:17;;;;;;;14.30;4.80;;;;;;;15.80;65.53;101313.53;4929110;29;20127;-84
2023/06/09 01:58:46;;;;;;;9.43;4.07;;;;;;;15.69;66.16;101304.50;4962559;28;20031;-84
2023/06/09 02:01:16;;;;;;;8.02;4.15;;;;;;;15.62;66.58;101305.97;4933267;29;20113;-84
2023/06/09 02:03:43;;;;;;;8.20;3.92;;;;;;;15.60;67.41;101319.84;4964410;28;20563;-84
2023/06/09 02:06:10;;;;;;;9.18;3.65;;;;;;;15.49;67.89;101317.16;4948502;29;20578;-84
2023/06/09 02:08:37;;;;;;;11.93;4.35;;;;;;;15.45;67.55;101308.31;4950081;28;20050;-84
2023/06/09 02:11:03;;;;;;;8.48;3.92;;;;;;;15.41;67.84;101308.72;4948530;29;20118;-84
2023/06/09 02:13:29;;;;;;;9.93;5.25;;;;;;;15.36;67.61;101300.00;4947598;29;20059;-84
2023/06/09 02:15:55;;;;;;;13.45;4.82;;;;;;;15.34;67.70;101297.41;4948653;29;20187;-84
2023/06/09 02:18:22;;;;;;;11.52;4.00;;;;;;;15.33;67.79;101298.38;4948464;28;20035;-84
2023/06/09 02:20:51;;;;;;;9.73;4.63;;;;;;;15.23;68.19;101292.81;4964421;28;20043;-84
2023/06/09 02:23:19;;;;;;;7.95;3.70;;;;;;;15.24;68.27;101291.81;4948649;29;20127;-84
2023/06/09 02:25:45;;;;;;;9.68;4.03;;;;;;;15.18;68.18;101275.91;4949740;28;20047;-84
2023/06/09 02:28:12;;;;;;;11.05;4.20;;;;;;;15.13;68.60;101283.66;4947526;28;20431;-84
2023/06/09 02:30:38;;;;;;;12.27;4.25;;;;;;;15.08;69.02;101291.38;4948755;28;20043;-84
2023/06/09 02:33:03;;;;;;;10.85;4.55;;;;;;;15.08;68.57;101301.50;4960015;28;20125;-84
2023/06/09 02:35:29;;;;;;;9.68;4.20;;;;;;;15.04;69.00;101285.28;4945175;29;20027;-84
2023/06/09 02:37:57;;;;;;;9.40;4.22;;;;;;;15.06;68.74;101293.38;4913512;29;20028;-84
2023/06/09 02:40:23;;;;;;;10.45;4.07;;;;;;;15.02;68.74;101283.69;4929457;29;20040;-83
2023/06/09 02:42:48;;;;;;;10.07;4.32;;;;;;;15.00;68.89;101286.53;4954969;28;20052;-84
2023/06/09 02:45:14;;;;;;;11.65;4.30;;;;;;;14.94;69.09;101283.47;4950123;29;20107;-84
2023/06/09 02:47:40;;;;;;;9.88;4.25;;;;;;;14.94;68.65;101291.69;4932763;29;20062;-83
2023/06/09 02:50:07;;;;;;;7.63;4.15;;;;;;;14.91;69.30;101281.84;4948197;29;20035;-84
2023/06/09 02:52:32;;;;;;;12.05;4.35;;;;;;;14.90;68.96;101287.44;4948849;29;20537;-84
2023/06/09 02:54:58;;;;;;;11.57;5.05;;;;;;;14.89;68.83;101296.69;4928901;29;20032;-84
2023/06/09 02:57:25;;;;;;;11.02;4.70;;;;;;;14.79;70.35;101285.63;4951098;28;20058;-84
2023/06/09 02:59:51;;;;;;;14.52;5.28;;;;;;;14.75;70.40;101281.38;4948717;29;20495;-84
2023/06/09 03:02:17;;;;;;;13.80;5.15;;;;;;;14.68;70.58;101281.00;4948685;28;20045;-83
2023/06/09 03:04:43;;;;;;;12.35;4.97;;;;;;;14.69;70.59;101287.38;4932107;29;20070;-84
2023/06/09 03:07:13;;;;;;;11.80;4.43;;;;;;;14.63;72.12;101285.13;4950269;28;20035;-84
2023/06/09 03:09:42;;;;;;;10.73;4.78;;;;;;;14.61;70.79;101289.88;4951794;29;20039;-84
2023/06/09 03:12:09;;;;;;;17.75;4.90;;;;;;;14.63;70.43;101290.59;4951022;29;20356;-84
2023/06/09 03:14:35;;;;;;;11.27;5.50;;;;;;;14.56;71.19;101276.56;4958169;28;20130;-84
2023/06/09 03:17:04;;;;;;;8.73;4.32;;;;;;;14.55;71.80;101296.75;4933027;29;20054;-84
2023/06/09 03:19:30;;;;;;;14.75;5.07;;;;;;;14.49;71.68;101299.94;4954405;28;20412;-83
2023/06/09 03:21:57;;;;;;;10.13;5.20;;;;;;;14.46;71.07;101292.84;4964854;28;20095;-84
2023/06/09 03:24:24;;;;;;;10.45;4.53;;;;;;;14.46;71.38;101295.59;4964191;28;20042;-84
2023/06/09 03:26:52;;;;;;;10.27;4.82;;;;;;;14.49;70.92;101298.09;4958686;28;20051;-84
2023/06/09 03:29:18;;;;;;;11.55;4.55;;;;;;;14.47;71.47;101291.84;4951177;29;20037;-84
2023/06/09 03:31:44;;;;;;;13.05;4.80;;;;;;;14.47;71.64;101300.06;4953212;28;20040;-84
2023/06/09 03:34:10;;;;;;;13.02;5.03;;;;;;;14.43;71.71;101297.69;4948156;29;20099;-84
2023/06/09 03:36:35;;;;;;;12.85;4.63;;;;;;;14.44;72.08;101304.91;4917128;29;20039;-84
2023/06/09 03:39:03;;;;;;;8.38;5.00;;;;;;;14.35;72.18;101295.56;4948575;29;20058;-84
2023/06/09 03:41:28;;;;;;;8.48;5.45;;;;;;;14.33;71.77;101285.75;4950148;28;20019;-84
2023/06/09 03:43:55;;;;;;;15.43;5.18;;;;;;;14.41;71.84;101291.47;4947646;29;20031;-84
2023/06/09 03:46:21;;;;;;;9.80;4.55;;;;;;;14.35;72.01;101292.84;4932447;29;20380;-84
2023/06/09 03:48:47;;;;;;;11.23;5.30;;;;;;;14.36;72.51;101304.66;4950989;28;20023;-84
2023/06/09 03:51:13;;;;;;;8.93;4.63;;;;;;;14.29;73.09;101309.75;4967931;28;20074;-84
2023/06/09 03:53:39;;;;;;;8.38;4.80;;;;;;;14.31;73.67;101315.97;4951495;28;20039;-84
2023/06/09 03:56:06;;;;;;;16.70;5.32;;;;;;;14.21;73.50;101318.56;4966987;28;20035;-84
2023/06/09 03:58:33;;;;;;;10.45;4.72;;;;;;;14.21;73.34;101307.63;4953426;28;20126;-84
2023/06/09 04:00:59;;;;;;;11.93;4.63;;;;;;;14.27;72.70;101311.75;4951405;28;20105;-84
2023/06/09 04:03:26;;;;;;;15.55;5.40;;;;;;;14.25;73.71;101311.88;4934894;29;20035;-84
2023/06/09 04:05:51;;;;;;;13.77;5.28;;;;;;;14.27;73.26;101309.03;4934285;29;20034;-84
2023/06/09 04:08:17;;;;;;;13.20;4.78;;;;;;;14.28;73.88;101313.50;4934533;29;20027;-84
2023/06/09 04:10:42;;;;;;;12.93;4.75;;;;;;;14.28;73.03;101317.09;4950293;29;20439;-84
2023/06/09 04:13:14;;;;;;;15.32;4.97;;;;;;;14.36;73.50;101321.06;4949660;29;20109;-84
2023/06/09 04:15:40;;;;;;;9.80;4.65;;;;;;;14.36;72.96;101318.34;4951092;28;20067;-83
2023/06/09 04:18:05;;;;;;;15.55;5.07;;;;;;;14.34;73.68;101312.13;4950472;28;20129;-84
2023/06/09 04:20:34;;;;;;;7.53;4.70;;;;;;;14.36;74.02;101321.97;4951000;28;20043;-84
2023/06/09 04:23:01;;;;;;;13.35;4.85;;;;;;;14.40;73.55;101323.44;4934380;29;20075;-84
2023/06/09 04:25:34;;;;;;;10.15;4.97;;;;;;;14.44;73.38;101324.94;4950832;28;20043;-84
2023/06/09 04:28:04;;;;;;;12.10;4.93;;;;;;;14.41;75.65;101327.94;4934041;29;20043;-84
2023/06/09 04:30:30;;;;;;;14.35;5.35;;;;;;;14.40;74.39;101323.44;4950640;28;20457;-84
2023/06/09 04:33:03;;;;;;;13.02;4.90;;;;;;;14.44;74.58;101329.53;4950273;28;20171;-84
2023/06/09 04:35:30;;;;;;;11.32;5.28;;;;;;;14.42;75.47;101326.06;4966338;28;20035;-85
2023/06/09 04:37:59;;;;;;;11.45;5.10;;;;;;;14.47;75.01;101332.91;4950612;28;20478;-84
2023/06/09 04:40:25;;;;;;;11.95;5.60;;;;;;;14.48;75.42;101318.25;4934274;29;20126;-84
2023/06/09 04:42:53;;;;;;;12.88;5.15;;;;;;;14.51;74.79;101330.84;4945935;29;20432;-84
2023/06/09 04:45:20;;;;;;;18.15;5.05;;;;;;;14.57;74.68;101329.47;4915873;29;20035;-84
2023/06/09 04:47:48;;;;;;;10.18;4.88;;;;;;;14.61;74.56;101323.59;4944059;29;20487;-83
2023/06/09 04:50:15;;;;;;;13.95;4.82;;;;;;;14.67;75.08;101330.44;4949975;29;20367;-84
2023/06/09 04:52:44;;;;;;;12.23;6.00;;;;;;;14.72;75.39;101334.53;4950265;29;20487;-84
2023/06/09 04:55:14;;;;;;;20.90;6.07;;;;;;;14.74;76.08;101329.81;4934413;29;20023;-84
2023/06/09 04:57:40;;;;;;;9.57;5.50;;;;;;;14.80;74.90;101334.78;4948557;29;20031;-84
2023/06/09 05:00:12;;;;;;;11.55;5.60;;;;;;;14.89;74.48;101327.69;4934800;29;20034;-85
2023/06/09 05:02:39;;;;;;;11.68;6.22;;;;;;;14.91;73.92;101322.06;4965936;28;20407;-85
2023/06/09 05:05:05;;;;;;;14.88;5.57;;;;;;;14.97;74.83;101338.88;4949765;29;20117;-84
2023/06/09 05:07:31;;;;;;;16.25;6.30;;;;;;;14.98;74.14;101332.41;4934076;29;20039;-84
2023/06/09 05:09:56;;;;;;;14.60;6.72;;;;;;;15.03;74.59;101323.78;4965577;28;20035;-84
2023/06/09 05:12:22;;;;;;;12.40;6.40;;;;;;;15.05;73.36;101330.00;4963871;28;20035;-84
2023/06/09 05:14:47;;;;;;;17.52;6.35;;;;;;;15.12;75.25;101341.34;4949559;28;20130;-85
2023/06/09 05:17:13;;;;;;;18.52;5.65;;;;;;;15.21;74.15;101337.84;4951009;28;20065;-84
2023/06/09 05:19:38;;;;;;;17.33;6.47;;;;;;;15.21;74.60;101325.00;4949091;29;20054;-84
2023/06/09 05:22:03;;;;;;;19.77;6.43;;;;;;;15.30;74.90;101334.31;4965356;28;20049;-84
2023/06/09 05:24:29;;;;;;;13.90;6.25;;;;;;;15.34;74.96;101332.16;4932550;29;20035;-84
2023/06/09 05:26:55;;;;;;;17.42;6.20;;;;;;;15.43;74.39;101332.25;4946436;28;20549;-85
2023/06/09 05:29:21;;;;;;;14.02;6.07;;;;;;;15.42;74.60;101341.47;4956337;28;20379;-84
2023/06/09 05:31:46;;;;;;;16.65;6.80;;;;;;;15.55;74.46;101344.06;4965871;28;20050;-84
2023/06/09 05:34:12;;;;;;;20.20;7.28;;;;;;;15.55;75.53;101335.81;4949941;28;20059;-84
2023/06/09 05:36:37;;;;;;;13.82;6.35;;;;;;;15.63;74.24;101341.53;4949035;29;20055;-85
2023/06/09 05:39:03;;;;;;;13.00;7.45;;;;;;;15.67;75.92;101355.91;4948774;28;20035;-84
2023/06/09 05:41:29;;;;;;;21.90;6.75;;;;;;;15.71;73.98;101338.13;4948674;28;20045;-84
2023/06/09 05:43:57;;;;;;;20.70;7.15;;;;;;;15.80;75.54;101340.09;4949505;28;20037;-84
2023/06/09 05:46:23;;;;;;;20.67;7.35;;;;;;;15.86;73.30;101338.72;4948683;29;20037;-84
2023/06/09 05:48:48;;;;;;;18.00;7.15;;;;;;;15.92;73.94;101351.91;4950306;29;20153;-84
2023/06/09 05:51:13;;;;;;;15.48;6.70;;;;;;;15.98;74.62;101348.59;4950118;28;20790;-84
2023/06/09 05:53:39;;;;;;;14.50;7.05;;;;;;;16.00;74.73;101338.38;4932314;29;20456;-85
2023/06/09 05:56:05;;;;;;;15.15;7.20;;;;;;;15.90;74.58;101312.72;4950151;28;20122;-84
2023/06/09 05:58:33;;;;;;;17.00;6.70;;;;;;;16.10;74.19;101336.56;4946490;29;20102;-84
2023/06/09 06:00:59;;;;;;;20.55;7.78;;;;;;;16.15;74.00;101333.41;4948921;28;20169;-84
2023/06/09 06:03:26;;;;;;;19.35;7.60;;;;;;;16.23;73.64;101347.34;4947153;28;20035;-85
2023/06/09 06:05:51;;;;;;;21.92;8.10;;;;;;;16.29;74.82;101338.53;4948078;29;20545;-84
2023/06/09 06:08:17;;;;;;;17.30;7.60;;;;;;;16.32;74.39;101339.16;4949363;28;20130;-84
2023/06/09 06:10:42;;;;;;;25.05;8.75;;;;;;;16.40;74.73;101340.34;4932513;29;20603;-84
2023/06/09 06:13:08;;;;;;;23.45;8.40;;;;;;;16.48;74.59;101335.91;4948571;29;20372;-84
2023/06/09 06:15:33;;;;;;;18.38;8.18;;;;;;;16.50;72.92;101333.00;4944793;28;20035;-85
2023/06/09 06:17:58;;;;;;;21.85;7.80;;;;;;;16.59;71.94;101334.94;4945992;28;20054;-84
2023/06/09 06:20:24;;;;;;;22.05;9.52;;;;;;;16.63;74.36;101330.91;4947876;29;20416;-84
2023/06/09 06:22:49;;;;;;;19.60;8.80;;;;;;;16.68;73.62;101325.84;4964043;28;20094;-84
2023/06/09 06:25:17;;;;;;;17.15;8.00;;;;;;;16.76;72.45;101334.31;4947714;28;20063;-85
2023/06/09 06:27:43;;;;;;;19.65;10.02;;;;;;;16.82;73.32;101344.72;4943860;28;20039;-84
2023/06/09 06:30:09;;;;;;;15.23;9.15;;;;;;;16.88;72.55;101336.94;4945650;29;20039;-85
2023/06/09 06:32:40;;;;;;;18.92;8.45;;;;;;;16.97;73.15;101341.59;4954053;28;20019;-84
2023/06/09 06:35:09;;;;;;;15.57;9.20;;;;;;;17.02;73.76;101345.69;4950269;28;20071;-84
2023/06/09 06:37:34;;;;;;;24.20;10.20;;;;;;;17.09;73.27;101344.09;4948880;29;20043;-84
2023/06/09 06:40:00;;;;;;;20.90;9.50;;;;;;;17.19;73.50;101343.25;4949449;28;20517;-84
2023/06/09 06:42:25;;;;;;;19.75;9.93;;;;;;;17.26;73.11;101328.78;4951089;28;20027;-85
2023/06/09 06:44:59;;;;;;;18.15;10.25;;;;;;;17.37;73.28;101336.03;4968628;28;20031;-84
2023/06/09 06:47:25;;;;;;;23.88;9.80;;;;;;;17.45;73.76;101335.34;4968248;28;20546;-84
2023/06/09 06:49:50;;;;;;;26.05;10.90;;;;;;;17.52;73.23;101329.09;4963227;28;20031;-85
2023/06/09 06:52:15;;;;;;;17.00;9.80;;;;;;;17.55;73.70;101331.56;4968560;28;20031;-85
2023/06/09 06:54:41;;;;;;;25.23;11.27;;;;;;;17.58;73.06;101331.28;4966574;28;20118;-84
2023/06/09 06:57:06;;;;;;;21.17;10.07;;;;;;;17.65;73.41;101334.31;4951171;29;20451;-84
2023/06/09 06:59:32;;;;;;;23.02;11.05;;;;;;;17.73;72.45;101331.75;4951474;29;20360;-84
2023/06/09 07:01:57;;;;;;;19.83;10.82;;;;;;;17.79;72.97;101327.53;4935989;29;20023;-84
2023/06/09 07:04:22;;;;;;;21.35;10.75;;;;;;;17.84;72.75;101333.47;4951683;29;20038;-84
2023/06/09 07:06:48;;;;;;;27.55;11.95;;;;;;;17.88;72.82;101325.78;4951397;28;20399;-84
2023/06/09 07:09:13;;;;;;;24.00;9.98;;;;;;;17.95;71.68;101327.81;4935279;29;20030;-84
2023/06/09 07:11:42;;;;;;;23.08;11.40;;;;;;;18.07;72.36;101334.00;4951338;29;20059;-84
2023/06/09 07:14:07;;;;;;;18.40;10.40;;;;;;;18.21;72.55;101335.44;4952256;28;20054;-84
2023/06/09 07:16:33;;;;;;;28.23;11.15;;;;;;;18.31;72.24;101339.88;4947616;29;20027;-85
2023/06/09 07:18:58;;;;;;;16.85;10.57;;;;;;;18.40;72.54;101334.50;4949693;29;20035;-84
2023/06/09 07:21:23;;;;;;;19.02;9.98;;;;;;;18.56;71.89;101337.50;4935855;29;20121;-84
2023/06/09 07:23:49;;;;;;;20.48;11.35;;;;;;;18.69;70.49;101337.19;4952680;28;20107;-85
2023/06/09 07:26:14;;;;;;;31.63;12.35;;;;;;;18.73;71.36;101342.22;4966564;28;20047;-85
2023/06/09 07:28:39;;;;;;;27.05;11.18;;;;;;;18.85;71.42;101338.28;4951871;28;20121;-85
2023/06/09 07:31:05;;;;;;;20.52;10.77;;;;;;;18.96;70.53;101342.69;4953211;29;20071;-83
2023/06/09 07:33:32;;;;;;;27.33;11.90;;;;;;;19.05;70.24;101346.44;4952911;29;20082;-84
2023/06/09 07:35:58;;;;;;;18.23;10.73;;;;;;;19.08;70.11;101335.97;4951970;29;20054;-84
2023/06/09 07:38:27;;;;;;;17.63;11.88;;;;;;;19.16;70.62;101343.44;4951429;29;20031;-84
2023/06/09 07:40:53;;;;;;;29.80;12.27;;;;;;;19.20;70.83;101342.13;4950762;28;20475;-85
2023/06/09 07:43:18;;;;;;;18.20;11.13;;;;;;;19.29;71.13;101343.09;4931299;29;20043;-85
2023/06/09 07:45:45;;;;;;;23.20;10.90;;;;;;;19.44;69.89;101351.69;4932590;29;20083;-84
2023/06/09 07:48:10;;;;;;;19.10;11.65;;;;;;;19.52;69.05;101341.59;4967400;28;20049;-84
2023/06/09 07:50:36;;;;;;;21.30;12.15;;;;;;;19.64;69.60;101345.03;4951436;29;20118;-84
2023/06/09 07:53:03;;;;;;;18.27;11.45;;;;;;;19.70;68.76;101336.13;4950217;28;20043;-84
2023/06/09 07:55:28;;;;;;;20.38;11.32;;;;;;;19.90;68.78;101335.94;4952083;28;20503;-85
2023/06/09 07:57:55;;;;;;;21.73;12.43;;;;;;;20.02;67.19;101337.44;4933658;29;20070;-84
2023/06/09 08:00:20;;;;;;;22.40;11.73;;;;;;;20.12;67.85;101335.44;4967374;28;20071;-84
2023/06/09 08:02:46;;;;;;;19.58;12.45;;;;;;;20.35;69.22;101333.00;4950615;29;20070;-85
2023/06/09 08:05:21;;;;;;;21.65;13.77;;;;;;;20.51;66.03;101335.00;4950001;29;20047;-85
2023/06/09 08:07:47;;;;;;;21.42;11.98;;;;;;;20.94;65.31;101325.75;4952342;28;20031;-84
2023/06/09 08:10:12;;;;;;;20.13;12.25;;;;;;;21.61;65.20;101323.84;4950248;29;20126;-85
2023/06/09 08:12:38;;;;;;;17.33;10.60;;;;;;;22.43;63.40;101326.63;4959660;28;20035;-85
2023/06/09 08:15:04;;;;;;;18.30;10.45;;;;;;;22.97;60.47;101329.56;4939432;28;20051;-85
2023/06/09 08:17:29;;;;;;;18.75;10.27;;;;;;;23.53;58.40;101319.16;4935351;29;20699;-84
2023/06/09 08:19:54;;;;;;;16.88;11.18;;;;;;;24.32;58.42;101321.66;4950628;29;20510;-85
2023/06/09 08:22:20;;;;;;;17.55;10.75;;;;;;;24.72;55.27;101320.38;4966870;28;20031;-85
2023/06/09 08:24:46;;;;;;;18.30;10.93;;;;;;;25.30;53.74;101324.16;4949829;29;20446;-84
2023/06/09 08:27:12;;;;;;;16.63;10.75;;;;;;;25.87;52.04;101316.84;4949815;29;20035;-84
2023/06/09 08:29:37;;;;;;;17.83;10.95;;;;;;;26.12;50.46;101317.28;4949545;28;20043;-86
2023/06/09 08:32:03;;;;;;;16.58;10.50;;;;;;;26.49;49.96;101310.53;4951288;29;20043;-84
2023/06/09 08:34:28;;;;;;;18.50;9.93;;;;;;;26.93;49.02;101312.91;4950068;29;20075;-84
2023/06/09 08:36:53;;;;;;;14.05;9.10;;;;;;;27.26;47.65;101314.16;4952044;28;20093;-84
2023/06/09 08:39:19;;;;;;;15.13;8.75;;;;;;;27.77;46.85;101320.13;4966239;28;20039;-84
2023/06/09 08:41:49;;;;;;;17.33;10.45;;;;;;;28.20;44.55;101314.97;4965858;28;20051;-84
2023/06/09 08:44:16;;;;;;;17.45;9.90;;;;;;;28.26;44.50;101318.84;4965823;28;20051;-82
2023/06/09 08:46:43;;;;;;;17.98;11.30;;;;;;;27.77;43.40;101317.31;4966851;28;20407;-84
2023/06/09 08:49:08;;;;;;;15.13;9.48;;;;;;;27.96;45.09;101312.81;4962286;28;20110;-84
2023/06/09 08:51:37;;;;;;;18.05;9.00;;;;;;;28.42;46.13;101318.44;4933212;29;20059;-84
2023/06/09 08:54:03;;;;;;;16.02;10.57;;;;;;;28.39;43.69;101316.06;4961640;28;20043;-85
2023/06/09 08:56:28;;;;;;;14.00;9.32;;;;;;;28.72;42.49;101318.81;4950314;28;20065;-84
2023/06/09 08:58:54;;;;;;;20.23;11.10;;;;;;;28.80;40.67;101320.50;4946105;28;20130;-84
2023/06/09 09:01:20;;;;;;;15.93;11.18;;;;;;;28.66;41.24;101316.88;4946997;29;20040;-84
2023/06/09 09:03:47;;;;;;;17.73;10.43;;;;;;;28.45;43.05;101315.19;4932962;29;20166;-84
2023/06/09 09:06:13;;;;;;;13.88;10.00;;;;;;;28.42;42.71;101310.03;4949942;29;20526;-84
2023/06/09 09:08:39;;;;;;;16.05;9.00;;;;;;;28.88;43.43;101308.19;4965884;28;20495;-84
2023/06/09 09:11:05;;;;;;;16.23;9.88;;;;;;;29.27;42.44;101309.13;4949505;28;20039;-84
2023/06/09 09:13:31;;;;;;;13.05;9.35;;;;;;;29.56;41.69;101308.56;4948163;28;20050;-83
2023/06/09 09:15:58;;;;;;;14.82;10.05;;;;;;;29.34;40.88;101305.22;4946512;29;20040;-84
2023/06/09 09:18:29;;;;;;;17.35;10.55;;;;;;;29.31;41.37;101299.19;4938444;29;20046;-84
2023/06/09 09:20:55;;;;;;;15.60;8.77;;;;;;;29.79;41.30;101298.69;4949515;29;20054;-83
2023/06/09 09:23:31;;;;;;;10.02;7.65;;;;;;;29.90;39.94;101303.59;4951220;28;20051;-84
2023/06/09 09:26:03;;;;;;;40.65;10.18;;;;;;;30.07;39.21;101290.69;4949554;28;20452;-84
2023/06/09 09:28:39;;;;;;;18.02;8.60;;;;;;;30.16;40.77;101294.09;4948397;29;20077;-84
2023/06/09 09:31:08;;;;;;;18.33;8.50;;;;;;;30.24;40.33;101286.25;4950347;29;20035;-84
2023/06/09 09:33:36;;;;;;;14.48;8.50;;;;;;;30.52;39.39;101284.91;4965362;28;20043;-84
2023/06/09 09:36:02;;;;;;;13.82;9.00;;;;;;;30.26;39.17;101286.03;4951284;28;20035;-85
2023/06/09 09:38:31;;;;;;;16.50;8.32;;;;;;;30.68;39.28;101286.22;4950539;28;20034;-84
2023/06/09 09:40:58;;;;;;;15.88;9.60;;;;;;;30.67;38.01;101285.38;4948655;28;20097;-85
2023/06/09 09:43:28;;;;;;;12.82;8.00;;;;;;;31.01;41.66;101285.88;4948587;29;20068;-84
2023/06/09 09:45:55;;;;;;;14.75;10.35;;;;;;;30.88;36.07;101280.44;4965550;28;20047;-84
2023/06/09 09:48:23;;;;;;;13.93;9.77;;;;;;;30.98;38.45;101284.41;4949418;28;20023;-84
2023/06/09 09:50:52;;;;;;;17.00;10.18;;;;;;;31.01;36.83;101283.06;4964885;28;20121;-83
2023/06/09 09:53:26;;;;;;;15.10;9.32;;;;;;;30.92;37.35;101282.53;4965100;28;20130;-84
2023/06/09 09:55:54;;;;;;;12.75;9.60;;;;;;;31.09;38.30;101274.28;4932772;29;20557;-84
2023/06/09 09:58:29;;;;;;;12.02;9.05;;;;;;;31.35;39.67;101275.06;4929017;29;20499;-84
2023/06/09 10:00:57;;;;;;;17.00;9.68;;;;;;;31.68;37.40;101275.41;4950466;29;20051;-84
2023/06/09 10:03:23;;;;;;;12.98;9.27;;;;;;;31.57;38.28;101278.19;4965393;28;20536;-86
2023/06/09 10:05:49;;;;;;;14.88;10.02;;;;;;;31.64;34.92;101284.59;4948421;29;20459;-84
2023/06/09 10:08:26;;;;;;;16.17;10.02;;;;;;;31.75;36.11;101283.75;4955715;28;20375;-84
2023/06/09 10:10:53;;;;;;;16.38;11.25;;;;;;;31.47;37.91;101276.81;4963128;28;20027;-84
2023/06/09 10:13:20;;;;;;;15.13;9.50;;;;;;;31.49;36.12;101273.78;4963834;28;20362;-84
2023/06/09 10:15:46;;;;;;;11.68;8.27;;;;;;;31.50;36.77;101267.06;4964297;28;20101;-85
2023/06/09 10:18:12;;;;;;;13.55;7.38;;;;;;;31.38;37.38;101261.38;4948521;29;20368;-84
2023/06/09 10:20:40;;;;;;;11.32;7.75;;;;;;;31.41;35.78;101266.53;4965014;28;20130;-84
2023/06/09 10:23:06;;;;;;;11.25;8.40;;;;;;;31.74;35.20;101262.34;4949464;29;20049;-83
2023/06/09 10:25:32;;;;;;;16.50;8.95;;;;;;;32.07;36.38;101264.63;4950247;28;20138;-84
2023/06/09 10:27:57;;;;;;;13.55;10.27;;;;;;;32.16;34.05;101265.13;4948758;28;20130;-84
2023/06/09 10:30:23;;;;;;;13.45;8.95;;;;;;;32.20;35.79;101274.78;4950520;29;20488;-85
2023/06/09 10:33:14;;;;;;;16.40;9.52;;;;;;;32.51;36.20;101262.34;4962602;28;20039;-85
2023/06/09 10:35:43;;;;;;;10.35;8.25;;;;;;;32.58;34.49;101257.41;4944143;28;20555;-83
2023/06/09 10:38:40;;;;;;;14.10;8.35;;;;;;;32.33;34.91;101259.63;4945739;29;20043;-84
2023/06/09 10:41:10;;;;;;;12.50;8.73;;;;;;;32.45;34.12;101261.34;4947768;29;20039;-84
2023/06/09 10:43:51;;;;;;;9.45;8.30;;;;;;;32.52;34.53;101260.38;4947898;29;20054;-84
2023/06/09 10:46:16;;;;;;;13.10;8.40;;;;;;;32.83;34.54;101259.06;4947536;28;20065;-84
2023/06/09 10:48:50;;;;;;;12.02;8.60;;;;;;;32.73;34.39;101252.09;4949110;28;20027;-84
2023/06/09 10:51:31;;;;;;;14.93;8.30;;;;;;;32.51;33.67;101253.88;4950480;28;20087;-84
2023/06/09 10:54:06;;;;;;;10.15;7.20;;;;;;;32.98;35.37;101245.34;4944088;29;20522;-84
2023/06/09 10:56:40;;;;;;;13.93;9.00;;;;;;;32.85;31.32;101245.59;4946913;28;20085;-83
2023/06/09 10:59:30;;;;;;;15.82;7.95;;;;;;;33.04;33.52;101241.53;4947269;28;20531;-84
2023/06/09 11:02:18;;;;;;;15.43;7.93;;;;;;;32.89;33.94;101242.03;4930602;29;20035;-84
2023/06/09 11:04:49;;;;;;;10.50;7.68;;;;;;;33.19;34.00;101240.97;4939339;28;20051;-84
2023/06/09 11:07:14;;;;;;;;;;;;;;;33.66;34.44;101238.78;4949938;28;20050;-83
2023/06/09 11:10:00;;;;;;;11.02;6.75;;;;;;;33.23;31.12;101240.22;4948656;28;20301;-83
2023/06/09 11:12:47;;;;;;;7.72;6.47;;;;;;;32.95;31.87;101243.88;4937640;28;20047;-84
2023/06/09 11:15:16;;;;;;;10.38;6.85;;;;;;;33.01;31.60;101234.41;4928755;29;20558;-83
2023/06/09 11:17:44;;;;;;;13.25;6.30;;;;;;;33.13;29.48;101234.38;4932451;29;20035;-84
2023/06/09 11:20:09;;;;;;;9.82;6.90;;;;;;;32.78;29.73;101242.91;4947696;29;20023;-83